River & Lake Conditions

Stages:
  • Latest Observation

    Action Stage: 12.04 ft3.7 m

    Flow: 165 kcfs
    Impacts: Above 8.7 to 9.2 feet, the Corps will raise the gates out of the water, allowing for open river conditions. This corresponds to a discharge of approximately 110,000 cfs.
  • Stages

Stage Date Flow
10.30 ft3.14 mForecast 01/31/2017 12:00 am 139.000 kcfs
10.30 ft3.14 mForecast 01/30/2017 06:00 pm 139.000 kcfs
10.40 ft3.17 mForecast 01/30/2017 12:00 pm 140.000 kcfs
10.40 ft3.17 mForecast 01/30/2017 06:00 am 140.000 kcfs
10.40 ft3.17 mForecast 01/30/2017 12:00 am 140.000 kcfs
10.40 ft3.17 mForecast 01/29/2017 06:00 pm 140.000 kcfs
10.40 ft3.17 mForecast 01/29/2017 12:00 pm 140.000 kcfs
10.40 ft3.17 mForecast 01/29/2017 06:00 am 140.000 kcfs
10.30 ft3.14 mForecast 01/29/2017 12:00 am 139.000 kcfs
10.30 ft3.14 mForecast 01/28/2017 06:00 pm 139.000 kcfs
10.30 ft3.14 mForecast 01/28/2017 12:00 pm 139.000 kcfs
10.30 ft3.14 mForecast 01/28/2017 06:00 am 139.000 kcfs
10.30 ft3.14 mForecast 01/28/2017 12:00 am 139.000 kcfs
10.20 ft3.11 mForecast 01/27/2017 06:00 pm 137.000 kcfs
10.20 ft3.11 mForecast 01/27/2017 12:00 pm 137.000 kcfs
10.20 ft3.11 mForecast 01/27/2017 06:00 am 137.000 kcfs
10.30 ft3.14 mForecast 01/27/2017 12:00 am 139.000 kcfs
10.30 ft3.14 mForecast 01/26/2017 06:00 pm 139.000 kcfs
10.30 ft3.14 mForecast 01/26/2017 12:00 pm 139.000 kcfs
10.40 ft3.17 mForecast 01/26/2017 06:00 am 140.000 kcfs
10.40 ft3.17 mForecast 01/26/2017 12:00 am 140.000 kcfs
10.50 ft3.20 mForecast 01/25/2017 06:00 pm 142.000 kcfs
10.60 ft3.23 mForecast 01/25/2017 12:00 pm 143.000 kcfs
10.80 ft3.29 mForecast 01/25/2017 06:00 am 146.000 kcfs
10.90 ft3.32 mForecast 01/25/2017 12:00 am 148.000 kcfs
11.10 ft3.38 mForecast 01/24/2017 06:00 pm 151.000 kcfs
11.20 ft3.41 mForecast 01/24/2017 12:00 pm 152.000 kcfs
11.30 ft3.44 mForecast 01/24/2017 06:00 am 154.000 kcfs
11.40 ft3.47 mForecast 01/24/2017 12:00 am 155.000 kcfs
11.50 ft3.51 mForecast 01/23/2017 06:00 pm 157.000 kcfs
11.60 ft3.54 mForecast 01/23/2017 12:00 pm 159.000 kcfs
12.04 ft3.54 m 01/23/2017 06:00 am 165.000 kcfs
12.10 ft3.54 m 01/23/2017 04:00 am 166.000 kcfs
12.21 ft3.54 m 01/23/2017 02:00 am 168.000 kcfs
12.39 ft3.54 m 01/23/2017 12:00 am 170.000 kcfs
12.46 ft3.54 m 01/22/2017 10:00 pm 172.000 kcfs
12.58 ft3.54 m 01/22/2017 08:00 pm 173.000 kcfs
12.79 ft3.54 m 01/22/2017 06:00 pm 177.000 kcfs
12.91 ft3.54 m 01/22/2017 04:00 pm 178.000 kcfs
13.04 ft3.54 m 01/22/2017 02:00 pm 180.000 kcfs
13.20 ft3.54 m 01/22/2017 12:00 pm 183.000 kcfs
13.38 ft3.54 m 01/22/2017 10:00 am 186.000 kcfs
13.49 ft3.54 m 01/22/2017 08:00 am 187.000 kcfs
13.48 ft3.54 m 01/22/2017 06:00 am 187.000 kcfs
13.15 ft3.54 m 01/22/2017 04:00 am 182.000 kcfs
12.90 ft3.54 m 01/22/2017 02:00 am 178.000 kcfs
12.74 ft3.54 m 01/22/2017 12:00 am 176.000 kcfs
12.30 ft3.54 m 01/21/2017 10:00 pm 169.000 kcfs
11.71 ft3.54 m 01/21/2017 08:00 pm 160.000 kcfs
11.17 ft3.54 m 01/21/2017 06:00 pm 152.000 kcfs
10.35 ft3.54 m 01/21/2017 04:00 pm 139.000 kcfs
10.11 ft3.54 m 01/21/2017 02:00 pm 136.000 kcfs
9.91 ft3.54 m 01/21/2017 12:00 pm 133.000 kcfs
9.93 ft3.54 m 01/21/2017 10:00 am 133.000 kcfs
9.88 ft3.54 m 01/21/2017 08:00 am 132.000 kcfs
9.93 ft3.54 m 01/21/2017 06:00 am 133.000 kcfs
9.87 ft3.54 m 01/21/2017 04:00 am 132.000 kcfs
9.84 ft3.54 m 01/21/2017 02:00 am 132.000 kcfs
9.82 ft3.54 m 01/21/2017 12:00 am 131.000 kcfs
9.77 ft3.54 m 01/20/2017 10:00 pm 131.000 kcfs
9.69 ft3.54 m 01/20/2017 08:00 pm 129.000 kcfs
9.56 ft3.54 m 01/20/2017 06:00 pm 127.000 kcfs